sensor_id;sensor_type;location;lat;lon;timestamp;temperature;humidity
15636;DHT22;7917;50.818;6.972;2022-08-16T00:02:20;18.30;1.00
15636;DHT22;7917;50.818;6.972;2022-08-16T00:04:47;18.30;1.00
15636;DHT22;7917;50.818;6.972;2022-08-16T00:07:15;18.30;1.00
15636;DHT22;7917;50.818;6.972;2022-08-16T00:09:42;18.30;34.30
15636;DHT22;7917;50.818;6.972;2022-08-16T00:12:09;18.20;99.90
15636;DHT22;7917;50.818;6.972;2022-08-16T00:14:36;18.20;99.90
15636;DHT22;7917;50.818;6.972;2022-08-16T00:17:04;18.20;99.90
15636;DHT22;7917;50.818;6.972;2022-08-16T00:19:33;18.20;99.90
15636;DHT22;7917;50.818;6.972;2022-08-16T00:22:01;18.20;99.90
15636;DHT22;7917;50.818;6.972;2022-08-16T00:24:29;18.20;99.90
15636;DHT22;7917;50.818;6.972;2022-08-16T00:26:56;18.10;1.00
15636;DHT22;7917;50.818;6.972;2022-08-16T00:29:23;18.20;1.00
15636;DHT22;7917;50.818;6.972;2022-08-16T00:31:51;18.20;1.00
15636;DHT22;7917;50.818;6.972;2022-08-16T00:34:21;18.20;1.00
15636;DHT22;7917;50.818;6.972;2022-08-16T00:36:50;18.30;1.00
15636;DHT22;7917;50.818;6.972;2022-08-16T00:39:17;18.30;1.00
15636;DHT22;7917;50.818;6.972;2022-08-16T00:41:47;18.30;99.90
15636;DHT22;7917;50.818;6.972;2022-08-16T00:44:17;18.40;99.90
15636;DHT22;7917;50.818;6.972;2022-08-16T00:46:50;18.50;91.00
15636;DHT22;7917;50.818;6.972;2022-08-16T00:49:18;18.50;1.00
15636;DHT22;7917;50.818;6.972;2022-08-16T00:51:47;18.60;1.00
15636;DHT22;7917;50.818;6.972;2022-08-16T00:54:17;18.60;99.90
15636;DHT22;7917;50.818;6.972;2022-08-16T00:56:48;18.60;1.00
15636;DHT22;7917;50.818;6.972;2022-08-16T00:59:18;18.60;1.00
15636;DHT22;7917;50.818;6.972;2022-08-16T01:01:46;18.60;22.10
15636;DHT22;7917;50.818;6.972;2022-08-16T01:04:17;18.60;1.00
15636;DHT22;7917;50.818;6.972;2022-08-16T01:06:46;18.70;1.00
15636;DHT22;7917;50.818;6.972;2022-08-16T01:09:16;18.60;1.00
15636;DHT22;7917;50.818;6.972;2022-08-16T01:11:44;18.60;1.00
15636;DHT22;7917;50.818;6.972;2022-08-16T01:14:16;18.60;99.90
15636;DHT22;7917;50.818;6.972;2022-08-16T01:16:45;18.60;1.00
15636;DHT22;7917;50.818;6.972;2022-08-16T01:19:19;18.60;1.00
15636;DHT22;7917;50.818;6.972;2022-08-16T01:21:52;18.60;99.90
15636;DHT22;7917;50.818;6.972;2022-08-16T01:24:27;18.60;1.00
15636;DHT22;7917;50.818;6.972;2022-08-16T01:26:58;18.60;1.00
15636;DHT22;7917;50.818;6.972;2022-08-16T01:29:31;18.60;99.90
15636;DHT22;7917;50.818;6.972;2022-08-16T01:32:00;18.60;99.90
15636;DHT22;7917;50.818;6.972;2022-08-16T01:34:27;18.60;99.90
15636;DHT22;7917;50.818;6.972;2022-08-16T01:37:03;18.50;1.00
15636;DHT22;7917;50.818;6.972;2022-08-16T01:39:34;18.40;1.00
15636;DHT22;7917;50.818;6.972;2022-08-16T01:42:02;18.40;99.90
15636;DHT22;7917;50.818;6.972;2022-08-16T01:44:30;18.30;99.90
15636;DHT22;7917;50.818;6.972;2022-08-16T01:46:57;18.30;1.00
15636;DHT22;7917;50.818;6.972;2022-08-16T01:49:27;18.30;1.00
15636;DHT22;7917;50.818;6.972;2022-08-16T01:51:56;18.30;1.00
15636;DHT22;7917;50.818;6.972;2022-08-16T01:54:24;18.20;99.90
15636;DHT22;7917;50.818;6.972;2022-08-16T01:56:53;18.20;99.90
15636;DHT22;7917;50.818;6.972;2022-08-16T01:59:22;18.20;99.90
15636;DHT22;7917;50.818;6.972;2022-08-16T02:01:51;18.20;99.90
15636;DHT22;7917;50.818;6.972;2022-08-16T02:04:20;18.10;99.90
15636;DHT22;7917;50.818;6.972;2022-08-16T02:06:48;18.10;1.00
15636;DHT22;7917;50.818;6.972;2022-08-16T02:09:17;18.10;1.00
15636;DHT22;7917;50.818;6.972;2022-08-16T02:11:49;18.10;1.00
15636;DHT22;7917;50.818;6.972;2022-08-16T02:14:18;18.10;1.00
15636;DHT22;7917;50.818;6.972;2022-08-16T02:16:45;18.00;1.00
15636;DHT22;7917;50.818;6.972;2022-08-16T02:19:12;18.00;1.00
15636;DHT22;7917;50.818;6.972;2022-08-16T02:21:42;17.90;7.20
15636;DHT22;7917;50.818;6.972;2022-08-16T02:24:10;17.90;99.90
15636;DHT22;7917;50.818;6.972;2022-08-16T02:26:38;17.80;99.90
15636;DHT22;7917;50.818;6.972;2022-08-16T02:29:05;17.80;99.90
15636;DHT22;7917;50.818;6.972;2022-08-16T02:31:34;17.80;99.90
15636;DHT22;7917;50.818;6.972;2022-08-16T02:34:02;17.70;1.00
15636;DHT22;7917;50.818;6.972;2022-08-16T02:36:30;17.70;1.00
15636;DHT22;7917;50.818;6.972;2022-08-16T02:38:57;17.80;1.00
15636;DHT22;7917;50.818;6.972;2022-08-16T02:41:24;17.70;1.00
15636;DHT22;7917;50.818;6.972;2022-08-16T02:43:52;17.70;1.00
15636;DHT22;7917;50.818;6.972;2022-08-16T02:46:19;17.70;6.70
15636;DHT22;7917;50.818;6.972;2022-08-16T02:48:47;17.60;99.90
15636;DHT22;7917;50.818;6.972;2022-08-16T02:51:15;17.60;99.90
15636;DHT22;7917;50.818;6.972;2022-08-16T02:53:44;17.50;99.90
15636;DHT22;7917;50.818;6.972;2022-08-16T02:56:12;17.50;99.90
15636;DHT22;7917;50.818;6.972;2022-08-16T02:58:39;17.50;99.90
15636;DHT22;7917;50.818;6.972;2022-08-16T03:01:07;17.50;99.90
15636;DHT22;7917;50.818;6.972;2022-08-16T03:03:35;17.50;99.90
15636;DHT22;7917;50.818;6.972;2022-08-16T03:06:04;17.40;99.90
15636;DHT22;7917;50.818;6.972;2022-08-16T03:08:32;17.40;99.90
15636;DHT22;7917;50.818;6.972;2022-08-16T03:10:59;17.40;1.00
15636;DHT22;7917;50.818;6.972;2022-08-16T03:13:26;17.40;1.00
15636;DHT22;7917;50.818;6.972;2022-08-16T03:15:54;17.40;1.00
15636;DHT22;7917;50.818;6.972;2022-08-16T03:18:21;17.30;1.00
15636;DHT22;7917;50.818;6.972;2022-08-16T03:20:48;17.30;1.00
15636;DHT22;7917;50.818;6.972;2022-08-16T03:23:17;17.30;1.00
15636;DHT22;7917;50.818;6.972;2022-08-16T03:25:44;17.30;1.00
15636;DHT22;7917;50.818;6.972;2022-08-16T03:28:11;17.20;1.00
15636;DHT22;7917;50.818;6.972;2022-08-16T03:30:39;17.30;1.00
15636;DHT22;7917;50.818;6.972;2022-08-16T03:33:06;17.30;1.00
15636;DHT22;7917;50.818;6.972;2022-08-16T03:35:35;17.30;1.00
15636;DHT22;7917;50.818;6.972;2022-08-16T03:38:05;17.20;1.00
15636;DHT22;7917;50.818;6.972;2022-08-16T03:40:35;17.20;1.00
15636;DHT22;7917;50.818;6.972;2022-08-16T03:43:04;17.20;1.00
15636;DHT22;7917;50.818;6.972;2022-08-16T03:45:32;17.20;1.00
15636;DHT22;7917;50.818;6.972;2022-08-16T03:48:00;17.20;1.00
15636;DHT22;7917;50.818;6.972;2022-08-16T03:50:28;17.20;1.00
15636;DHT22;7917;50.818;6.972;2022-08-16T03:52:56;17.10;1.00
15636;DHT22;7917;50.818;6.972;2022-08-16T03:55:24;17.10;1.00
15636;DHT22;7917;50.818;6.972;2022-08-16T03:57:52;17.10;1.00
15636;DHT22;7917;50.818;6.972;2022-08-16T04:00:23;17.00;1.00
15636;DHT22;7917;50.818;6.972;2022-08-16T04:02:52;17.00;1.00
15636;DHT22;7917;50.818;6.972;2022-08-16T04:05:20;17.00;1.00
15636;DHT22;7917;50.818;6.972;2022-08-16T04:07:48;16.90;1.00
15636;DHT22;7917;50.818;6.972;2022-08-16T04:10:16;16.90;1.00
15636;DHT22;7917;50.818;6.972;2022-08-16T04:12:44;16.90;1.00
15636;DHT22;7917;50.818;6.972;2022-08-16T04:15:15;16.90;1.00
15636;DHT22;7917;50.818;6.972;2022-08-16T04:17:43;16.90;1.00
15636;DHT22;7917;50.818;6.972;2022-08-16T04:20:11;16.90;1.00
15636;DHT22;7917;50.818;6.972;2022-08-16T04:22:39;16.90;1.00
15636;DHT22;7917;50.818;6.972;2022-08-16T04:25:09;16.90;1.00
15636;DHT22;7917;50.818;6.972;2022-08-16T04:27:37;16.90;1.00
15636;DHT22;7917;50.818;6.972;2022-08-16T04:30:07;16.90;1.00
15636;DHT22;7917;50.818;6.972;2022-08-16T04:32:37;16.90;1.00
15636;DHT22;7917;50.818;6.972;2022-08-16T04:35:05;16.90;1.00
15636;DHT22;7917;50.818;6.972;2022-08-16T04:37:33;16.90;1.00
15636;DHT22;7917;50.818;6.972;2022-08-16T04:40:00;16.90;1.00
15636;DHT22;7917;50.818;6.972;2022-08-16T04:42:27;17.00;1.00
15636;DHT22;7917;50.818;6.972;2022-08-16T04:44:55;17.00;1.00
15636;DHT22;7917;50.818;6.972;2022-08-16T04:47:24;17.10;1.00
15636;DHT22;7917;50.818;6.972;2022-08-16T04:49:55;17.10;1.00
15636;DHT22;7917;50.818;6.972;2022-08-16T04:52:22;17.10;1.00
15636;DHT22;7917;50.818;6.972;2022-08-16T04:54:49;17.10;1.00
15636;DHT22;7917;50.818;6.972;2022-08-16T04:57:16;17.10;1.00
15636;DHT22;7917;50.818;6.972;2022-08-16T04:59:44;17.20;1.00
15636;DHT22;7917;50.818;6.972;2022-08-16T05:02:11;17.20;1.00
15636;DHT22;7917;50.818;6.972;2022-08-16T05:04:38;17.20;1.00
15636;DHT22;7917;50.818;6.972;2022-08-16T05:07:07;17.30;1.00
15636;DHT22;7917;50.818;6.972;2022-08-16T05:09:34;17.30;1.00
15636;DHT22;7917;50.818;6.972;2022-08-16T05:12:01;17.40;1.00
15636;DHT22;7917;50.818;6.972;2022-08-16T05:14:28;17.40;1.00
15636;DHT22;7917;50.818;6.972;2022-08-16T05:16:56;17.50;1.00
15636;DHT22;7917;50.818;6.972;2022-08-16T05:19:23;17.50;1.00
15636;DHT22;7917;50.818;6.972;2022-08-16T05:21:50;17.60;1.00
15636;DHT22;7917;50.818;6.972;2022-08-16T05:24:19;17.80;99.90
15636;DHT22;7917;50.818;6.972;2022-08-16T05:26:46;17.90;99.90
15636;DHT22;7917;50.818;6.972;2022-08-16T05:29:13;17.90;99.90
15636;DHT22;7917;50.818;6.972;2022-08-16T05:31:41;18.00;99.90
15636;DHT22;7917;50.818;6.972;2022-08-16T05:34:08;18.10;99.90
15636;DHT22;7917;50.818;6.972;2022-08-16T05:36:36;18.20;1.00
15636;DHT22;7917;50.818;6.972;2022-08-16T05:39:05;18.30;1.00
15636;DHT22;7917;50.818;6.972;2022-08-16T05:41:35;18.40;1.00
15636;DHT22;7917;50.818;6.972;2022-08-16T05:44:02;18.60;1.00
15636;DHT22;7917;50.818;6.972;2022-08-16T05:46:30;18.70;99.90
15636;DHT22;7917;50.818;6.972;2022-08-16T05:48:57;18.90;99.90
15636;DHT22;7917;50.818;6.972;2022-08-16T05:51:25;19.00;1.00
15636;DHT22;7917;50.818;6.972;2022-08-16T05:53:52;19.20;99.90
15636;DHT22;7917;50.818;6.972;2022-08-16T05:56:19;19.30;1.00
15636;DHT22;7917;50.818;6.972;2022-08-16T05:58:48;19.40;99.90
15636;DHT22;7917;50.818;6.972;2022-08-16T06:01:15;19.60;99.90
15636;DHT22;7917;50.818;6.972;2022-08-16T06:03:42;19.80;1.00
15636;DHT22;7917;50.818;6.972;2022-08-16T06:06:09;19.90;1.00
15636;DHT22;7917;50.818;6.972;2022-08-16T06:08:36;20.10;99.90
15636;DHT22;7917;50.818;6.972;2022-08-16T06:11:04;20.30;1.00
15636;DHT22;7917;50.818;6.972;2022-08-16T06:13:31;20.40;99.60
15636;DHT22;7917;50.818;6.972;2022-08-16T06:16:00;20.60;99.90
15636;DHT22;7917;50.818;6.972;2022-08-16T06:18:27;20.80;99.90
15636;DHT22;7917;50.818;6.972;2022-08-16T06:20:55;20.90;1.00
15636;DHT22;7917;50.818;6.972;2022-08-16T06:23:22;20.90;1.00
15636;DHT22;7917;50.818;6.972;2022-08-16T06:25:51;21.10;1.00
15636;DHT22;7917;50.818;6.972;2022-08-16T06:28:18;21.30;99.90
15636;DHT22;7917;50.818;6.972;2022-08-16T06:30:45;21.50;99.90
15636;DHT22;7917;50.818;6.972;2022-08-16T06:33:16;21.60;73.70
15636;DHT22;7917;50.818;6.972;2022-08-16T06:35:44;21.80;1.00
15636;DHT22;7917;50.818;6.972;2022-08-16T06:38:11;21.90;1.00
15636;DHT22;7917;50.818;6.972;2022-08-16T06:40:39;21.90;99.90
15636;DHT22;7917;50.818;6.972;2022-08-16T06:43:06;22.00;1.00
15636;DHT22;7917;50.818;6.972;2022-08-16T06:45:34;22.10;99.90
15636;DHT22;7917;50.818;6.972;2022-08-16T06:48:03;22.00;99.90
15636;DHT22;7917;50.818;6.972;2022-08-16T06:50:32;22.20;99.90
15636;DHT22;7917;50.818;6.972;2022-08-16T06:53:00;22.30;39.00
15636;DHT22;7917;50.818;6.972;2022-08-16T07:05:44;22.90;1.00
15636;DHT22;7917;50.818;6.972;2022-08-16T07:08:11;22.90;1.00
15636;DHT22;7917;50.818;6.972;2022-08-16T07:10:38;23.00;1.00
15636;DHT22;7917;50.818;6.972;2022-08-16T07:13:05;23.20;99.90
15636;DHT22;7917;50.818;6.972;2022-08-16T07:15:32;23.30;99.90
15636;DHT22;7917;50.818;6.972;2022-08-16T07:18:00;23.30;99.90
15636;DHT22;7917;50.818;6.972;2022-08-16T07:20:27;23.50;99.90
15636;DHT22;7917;50.818;6.972;2022-08-16T07:22:56;23.50;99.90
15636;DHT22;7917;50.818;6.972;2022-08-16T07:25:23;23.70;99.90
15636;DHT22;7917;50.818;6.972;2022-08-16T07:27:50;23.80;99.90
15636;DHT22;7917;50.818;6.972;2022-08-16T07:30:18;23.80;99.90
15636;DHT22;7917;50.818;6.972;2022-08-16T07:32:45;23.90;99.90
15636;DHT22;7917;50.818;6.972;2022-08-16T07:35:15;24.10;99.90
15636;DHT22;7917;50.818;6.972;2022-08-16T07:37:42;24.20;48.50
15636;DHT22;7917;50.818;6.972;2022-08-16T07:40:11;24.30;6.10
15636;DHT22;7917;50.818;6.972;2022-08-16T07:42:39;24.50;1.00
15636;DHT22;7917;50.818;6.972;2022-08-16T07:45:07;24.60;1.00
15636;DHT22;7917;50.818;6.972;2022-08-16T07:47:35;24.70;1.00
15636;DHT22;7917;50.818;6.972;2022-08-16T07:50:03;24.90;1.00
15636;DHT22;7917;50.818;6.972;2022-08-16T07:52:30;24.90;1.00
15636;DHT22;7917;50.818;6.972;2022-08-16T07:54:58;25.10;1.00
15636;DHT22;7917;50.818;6.972;2022-08-16T07:57:26;25.40;1.00
15636;DHT22;7917;50.818;6.972;2022-08-16T07:59:53;25.60;1.00
15636;DHT22;7917;50.818;6.972;2022-08-16T08:02:20;25.60;1.00
15636;DHT22;7917;50.818;6.972;2022-08-16T08:04:48;25.80;1.00
15636;DHT22;7917;50.818;6.972;2022-08-16T08:07:15;26.10;1.00
15636;DHT22;7917;50.818;6.972;2022-08-16T08:09:42;26.20;1.00
15636;DHT22;7917;50.818;6.972;2022-08-16T08:12:09;26.20;1.00
15636;DHT22;7917;50.818;6.972;2022-08-16T08:14:38;26.20;1.00
15636;DHT22;7917;50.818;6.972;2022-08-16T08:17:05;26.50;1.00
15636;DHT22;7917;50.818;6.972;2022-08-16T08:19:33;26.60;1.00
15636;DHT22;7917;50.818;6.972;2022-08-16T08:22:00;26.80;99.90
15636;DHT22;7917;50.818;6.972;2022-08-16T08:24:27;26.70;1.00
15636;DHT22;7917;50.818;6.972;2022-08-16T08:26:58;26.70;1.00
15636;DHT22;7917;50.818;6.972;2022-08-16T08:29:25;27.00;99.90
15636;DHT22;7917;50.818;6.972;2022-08-16T08:31:54;26.90;99.90
15636;DHT22;7917;50.818;6.972;2022-08-16T08:34:22;27.00;99.90
15636;DHT22;7917;50.818;6.972;2022-08-16T08:36:50;26.70;99.90
15636;DHT22;7917;50.818;6.972;2022-08-16T08:39:17;26.80;99.90
15636;DHT22;7917;50.818;6.972;2022-08-16T08:41:44;26.90;99.90
15636;DHT22;7917;50.818;6.972;2022-08-16T08:44:12;27.20;99.90
15636;DHT22;7917;50.818;6.972;2022-08-16T08:46:42;27.30;99.90
15636;DHT22;7917;50.818;6.972;2022-08-16T08:49:11;27.40;99.90
15636;DHT22;7917;50.818;6.972;2022-08-16T08:51:38;27.30;99.90
15636;DHT22;7917;50.818;6.972;2022-08-16T08:54:06;27.30;99.90
15636;DHT22;7917;50.818;6.972;2022-08-16T08:56:34;27.10;99.90
15636;DHT22;7917;50.818;6.972;2022-08-16T08:59:02;27.40;99.90
15636;DHT22;7917;50.818;6.972;2022-08-16T09:01:33;27.50;99.90
15636;DHT22;7917;50.818;6.972;2022-08-16T09:04:00;27.60;99.90
15636;DHT22;7917;50.818;6.972;2022-08-16T09:06:29;27.60;99.90
15636;DHT22;7917;50.818;6.972;2022-08-16T09:08:57;27.70;99.90
15636;DHT22;7917;50.818;6.972;2022-08-16T09:11:25;27.80;99.90
15636;DHT22;7917;50.818;6.972;2022-08-16T09:13:53;28.00;99.90
15636;DHT22;7917;50.818;6.972;2022-08-16T09:16:21;27.80;99.90
15636;DHT22;7917;50.818;6.972;2022-08-16T09:18:48;27.80;99.90
15636;DHT22;7917;50.818;6.972;2022-08-16T09:21:15;28.20;99.90
15636;DHT22;7917;50.818;6.972;2022-08-16T09:23:43;28.30;99.90
15636;DHT22;7917;50.818;6.972;2022-08-16T09:26:12;28.20;99.90
15636;DHT22;7917;50.818;6.972;2022-08-16T09:28:41;28.40;99.90
15636;DHT22;7917;50.818;6.972;2022-08-16T09:31:09;28.50;99.90
15636;DHT22;7917;50.818;6.972;2022-08-16T09:33:37;28.70;99.90
15636;DHT22;7917;50.818;6.972;2022-08-16T09:36:04;28.80;99.90
15636;DHT22;7917;50.818;6.972;2022-08-16T09:38:32;28.70;99.90
15636;DHT22;7917;50.818;6.972;2022-08-16T09:41:04;28.60;99.90
15636;DHT22;7917;50.818;6.972;2022-08-16T09:43:33;28.60;99.90
15636;DHT22;7917;50.818;6.972;2022-08-16T09:46:01;28.90;99.90
15636;DHT22;7917;50.818;6.972;2022-08-16T09:48:29;28.90;99.90
15636;DHT22;7917;50.818;6.972;2022-08-16T09:50:57;28.80;99.90
15636;DHT22;7917;50.818;6.972;2022-08-16T09:53:24;28.80;99.90
15636;DHT22;7917;50.818;6.972;2022-08-16T09:55:55;28.80;99.90
15636;DHT22;7917;50.818;6.972;2022-08-16T09:58:25;28.70;99.90
15636;DHT22;7917;50.818;6.972;2022-08-16T10:00:53;28.60;99.90
15636;DHT22;7917;50.818;6.972;2022-08-16T10:03:21;28.50;99.90
15636;DHT22;7917;50.818;6.972;2022-08-16T10:05:49;28.80;99.90
15636;DHT22;7917;50.818;6.972;2022-08-16T10:08:16;29.00;99.90
15636;DHT22;7917;50.818;6.972;2022-08-16T10:10:44;29.20;99.90
15636;DHT22;7917;50.818;6.972;2022-08-16T10:13:34;29.00;99.90
15636;DHT22;7917;50.818;6.972;2022-08-16T10:16:00;28.80;99.90
15636;DHT22;7917;50.818;6.972;2022-08-16T10:18:29;28.90;99.90
15636;DHT22;7917;50.818;6.972;2022-08-16T10:20:57;28.70;99.90
15636;DHT22;7917;50.818;6.972;2022-08-16T10:23:24;29.00;99.90
15636;DHT22;7917;50.818;6.972;2022-08-16T10:25:54;28.90;99.90
15636;DHT22;7917;50.818;6.972;2022-08-16T10:28:21;29.20;99.90
15636;DHT22;7917;50.818;6.972;2022-08-16T10:30:50;29.30;99.90
15636;DHT22;7917;50.818;6.972;2022-08-16T10:33:17;29.20;99.90
15636;DHT22;7917;50.818;6.972;2022-08-16T10:35:45;29.20;99.90
15636;DHT22;7917;50.818;6.972;2022-08-16T10:38:13;29.30;99.90
15636;DHT22;7917;50.818;6.972;2022-08-16T10:40:41;29.60;99.90
15636;DHT22;7917;50.818;6.972;2022-08-16T10:43:09;29.50;99.90
15636;DHT22;7917;50.818;6.972;2022-08-16T10:45:36;29.40;99.90
15636;DHT22;7917;50.818;6.972;2022-08-16T10:48:07;29.60;99.90
15636;DHT22;7917;50.818;6.972;2022-08-16T10:50:36;29.70;99.90
15636;DHT22;7917;50.818;6.972;2022-08-16T10:53:03;29.60;99.90
15636;DHT22;7917;50.818;6.972;2022-08-16T10:55:32;29.30;99.90
15636;DHT22;7917;50.818;6.972;2022-08-16T10:58:02;29.30;99.90
15636;DHT22;7917;50.818;6.972;2022-08-16T11:00:30;29.30;99.90
15636;DHT22;7917;50.818;6.972;2022-08-16T11:02:58;29.70;99.90
15636;DHT22;7917;50.818;6.972;2022-08-16T11:05:29;29.80;99.90
15636;DHT22;7917;50.818;6.972;2022-08-16T11:07:57;30.10;99.90
15636;DHT22;7917;50.818;6.972;2022-08-16T11:10:26;30.30;99.90
15636;DHT22;7917;50.818;6.972;2022-08-16T11:12:53;30.40;99.90
15636;DHT22;7917;50.818;6.972;2022-08-16T11:15:21;30.40;99.90
15636;DHT22;7917;50.818;6.972;2022-08-16T11:17:50;30.20;99.90
15636;DHT22;7917;50.818;6.972;2022-08-16T11:20:18;30.20;99.90
15636;DHT22;7917;50.818;6.972;2022-08-16T11:22:47;30.50;99.90
15636;DHT22;7917;50.818;6.972;2022-08-16T11:25:16;30.70;99.90
15636;DHT22;7917;50.818;6.972;2022-08-16T11:27:44;30.80;99.90
15636;DHT22;7917;50.818;6.972;2022-08-16T11:30:13;30.80;99.90
15636;DHT22;7917;50.818;6.972;2022-08-16T11:32:41;30.90;99.90
15636;DHT22;7917;50.818;6.972;2022-08-16T11:35:11;30.90;99.90
15636;DHT22;7917;50.818;6.972;2022-08-16T11:37:42;30.80;99.90
15636;DHT22;7917;50.818;6.972;2022-08-16T11:40:11;30.80;99.90
15636;DHT22;7917;50.818;6.972;2022-08-16T11:42:38;30.80;99.90
15636;DHT22;7917;50.818;6.972;2022-08-16T11:45:06;30.90;99.90
15636;DHT22;7917;50.818;6.972;2022-08-16T11:47:34;30.80;99.90
15636;DHT22;7917;50.818;6.972;2022-08-16T11:50:02;30.60;99.90
15636;DHT22;7917;50.818;6.972;2022-08-16T11:52:32;31.00;99.90
15636;DHT22;7917;50.818;6.972;2022-08-16T11:54:59;31.10;99.90
15636;DHT22;7917;50.818;6.972;2022-08-16T11:57:28;31.20;99.90
15636;DHT22;7917;50.818;6.972;2022-08-16T11:59:55;31.30;99.90
15636;DHT22;7917;50.818;6.972;2022-08-16T12:02:22;30.90;99.90
15636;DHT22;7917;50.818;6.972;2022-08-16T12:04:50;30.50;99.90
15636;DHT22;7917;50.818;6.972;2022-08-16T12:07:18;30.70;99.90
15636;DHT22;7917;50.818;6.972;2022-08-16T12:09:46;31.00;99.90
15636;DHT22;7917;50.818;6.972;2022-08-16T12:12:14;31.60;99.90
15636;DHT22;7917;50.818;6.972;2022-08-16T12:14:42;32.00;99.90
15636;DHT22;7917;50.818;6.972;2022-08-16T12:17:09;32.00;99.90
15636;DHT22;7917;50.818;6.972;2022-08-16T12:19:36;32.20;99.90
15636;DHT22;7917;50.818;6.972;2022-08-16T12:22:04;32.60;99.90
15636;DHT22;7917;50.818;6.972;2022-08-16T12:24:32;32.80;99.90
15636;DHT22;7917;50.818;6.972;2022-08-16T12:27:00;32.50;99.90
15636;DHT22;7917;50.818;6.972;2022-08-16T12:29:28;32.70;99.90
15636;DHT22;7917;50.818;6.972;2022-08-16T12:31:57;33.00;99.90
15636;DHT22;7917;50.818;6.972;2022-08-16T12:34:24;32.80;99.90
15636;DHT22;7917;50.818;6.972;2022-08-16T12:36:51;33.40;99.90
15636;DHT22;7917;50.818;6.972;2022-08-16T12:39:18;33.70;99.90
15636;DHT22;7917;50.818;6.972;2022-08-16T12:41:46;33.90;99.90
15636;DHT22;7917;50.818;6.972;2022-08-16T12:44:14;33.50;99.90
15636;DHT22;7917;50.818;6.972;2022-08-16T12:46:42;33.60;99.90
15636;DHT22;7917;50.818;6.972;2022-08-16T12:49:30;33.20;99.90
15636;DHT22;7917;50.818;6.972;2022-08-16T12:51:57;32.70;99.90
15636;DHT22;7917;50.818;6.972;2022-08-16T12:54:24;32.00;99.90
15636;DHT22;7917;50.818;6.972;2022-08-16T12:56:51;31.90;99.90
15636;DHT22;7917;50.818;6.972;2022-08-16T12:59:22;31.70;99.90
15636;DHT22;7917;50.818;6.972;2022-08-16T13:01:49;31.40;99.90
15636;DHT22;7917;50.818;6.972;2022-08-16T13:04:17;31.20;99.90
15636;DHT22;7917;50.818;6.972;2022-08-16T13:06:46;30.90;99.90
15636;DHT22;7917;50.818;6.972;2022-08-16T13:09:15;31.10;99.90
15636;DHT22;7917;50.818;6.972;2022-08-16T13:11:52;31.50;99.90
15636;DHT22;7917;50.818;6.972;2022-08-16T13:14:29;31.50;99.90
15636;DHT22;7917;50.818;6.972;2022-08-16T13:16:58;31.50;99.90
15636;DHT22;7917;50.818;6.972;2022-08-16T13:19:25;31.30;99.90
15636;DHT22;7917;50.818;6.972;2022-08-16T13:21:54;31.30;99.90
15636;DHT22;7917;50.818;6.972;2022-08-16T13:24:22;31.10;99.90
15636;DHT22;7917;50.818;6.972;2022-08-16T13:26:49;30.70;99.90
15636;DHT22;7917;50.818;6.972;2022-08-16T13:29:17;30.70;99.90
15636;DHT22;7917;50.818;6.972;2022-08-16T13:31:44;30.70;99.90
15636;DHT22;7917;50.818;6.972;2022-08-16T13:34:12;30.60;99.90
15636;DHT22;7917;50.818;6.972;2022-08-16T13:36:40;30.40;99.90
15636;DHT22;7917;50.818;6.972;2022-08-16T13:39:10;30.20;99.90
15636;DHT22;7917;50.818;6.972;2022-08-16T13:41:37;30.30;99.90
15636;DHT22;7917;50.818;6.972;2022-08-16T13:44:06;30.10;99.90
15636;DHT22;7917;50.818;6.972;2022-08-16T13:46:34;30.10;99.90
15636;DHT22;7917;50.818;6.972;2022-08-16T13:49:01;30.20;99.90
15636;DHT22;7917;50.818;6.972;2022-08-16T13:51:30;30.20;99.90
15636;DHT22;7917;50.818;6.972;2022-08-16T13:53:59;30.20;99.90
15636;DHT22;7917;50.818;6.972;2022-08-16T13:56:30;30.10;99.90
15636;DHT22;7917;50.818;6.972;2022-08-16T13:58:59;30.10;99.90
15636;DHT22;7917;50.818;6.972;2022-08-16T14:01:27;30.00;99.90
15636;DHT22;7917;50.818;6.972;2022-08-16T14:03:55;30.10;99.90
15636;DHT22;7917;50.818;6.972;2022-08-16T14:06:22;30.10;99.90
15636;DHT22;7917;50.818;6.972;2022-08-16T14:08:50;30.20;99.90
15636;DHT22;7917;50.818;6.972;2022-08-16T14:11:17;30.30;99.90
15636;DHT22;7917;50.818;6.972;2022-08-16T14:13:45;30.10;99.90
15636;DHT22;7917;50.818;6.972;2022-08-16T14:16:13;30.10;99.90
15636;DHT22;7917;50.818;6.972;2022-08-16T14:18:40;30.20;99.90
15636;DHT22;7917;50.818;6.972;2022-08-16T14:21:07;30.60;99.90
15636;DHT22;7917;50.818;6.972;2022-08-16T14:23:34;31.00;99.90
15636;DHT22;7917;50.818;6.972;2022-08-16T14:26:02;31.20;99.90
15636;DHT22;7917;50.818;6.972;2022-08-16T14:28:29;31.50;99.90
15636;DHT22;7917;50.818;6.972;2022-08-16T14:30:57;31.70;99.90
15636;DHT22;7917;50.818;6.972;2022-08-16T14:33:25;32.30;99.90
15636;DHT22;7917;50.818;6.972;2022-08-16T14:35:55;32.30;99.90
15636;DHT22;7917;50.818;6.972;2022-08-16T14:38:22;32.20;99.90
15636;DHT22;7917;50.818;6.972;2022-08-16T14:40:50;32.00;99.90
15636;DHT22;7917;50.818;6.972;2022-08-16T14:43:17;31.80;99.90
15636;DHT22;7917;50.818;6.972;2022-08-16T14:45:44;31.80;99.90
15636;DHT22;7917;50.818;6.972;2022-08-16T14:48:13;31.70;99.90
15636;DHT22;7917;50.818;6.972;2022-08-16T14:50:42;31.70;99.90
15636;DHT22;7917;50.818;6.972;2022-08-16T14:53:09;31.50;99.90
15636;DHT22;7917;50.818;6.972;2022-08-16T14:55:38;31.30;99.90
15636;DHT22;7917;50.818;6.972;2022-08-16T14:58:05;31.10;99.90
15636;DHT22;7917;50.818;6.972;2022-08-16T15:00:33;31.10;99.90
15636;DHT22;7917;50.818;6.972;2022-08-16T15:03:02;30.80;99.90
15636;DHT22;7917;50.818;6.972;2022-08-16T15:05:32;30.60;99.90
15636;DHT22;7917;50.818;6.972;2022-08-16T15:08:00;30.30;99.90
15636;DHT22;7917;50.818;6.972;2022-08-16T15:10:27;30.10;99.90
15636;DHT22;7917;50.818;6.972;2022-08-16T15:12:54;30.00;99.90
15636;DHT22;7917;50.818;6.972;2022-08-16T15:15:24;30.00;99.90
15636;DHT22;7917;50.818;6.972;2022-08-16T15:17:52;29.80;99.90
15636;DHT22;7917;50.818;6.972;2022-08-16T15:20:20;29.80;99.90
15636;DHT22;7917;50.818;6.972;2022-08-16T15:22:49;29.80;99.90
15636;DHT22;7917;50.818;6.972;2022-08-16T15:25:19;29.90;99.90
15636;DHT22;7917;50.818;6.972;2022-08-16T15:27:47;29.80;99.90
15636;DHT22;7917;50.818;6.972;2022-08-16T15:30:18;29.90;99.90
15636;DHT22;7917;50.818;6.972;2022-08-16T15:32:46;29.80;99.90
15636;DHT22;7917;50.818;6.972;2022-08-16T15:35:14;29.70;99.90
15636;DHT22;7917;50.818;6.972;2022-08-16T15:37:42;29.80;99.90
15636;DHT22;7917;50.818;6.972;2022-08-16T15:40:13;29.80;99.90
15636;DHT22;7917;50.818;6.972;2022-08-16T15:42:41;29.80;99.90
15636;DHT22;7917;50.818;6.972;2022-08-16T15:45:10;29.80;99.90
15636;DHT22;7917;50.818;6.972;2022-08-16T15:47:37;30.00;99.90
15636;DHT22;7917;50.818;6.972;2022-08-16T15:50:05;30.20;99.90
15636;DHT22;7917;50.818;6.972;2022-08-16T15:52:35;30.50;99.90
15636;DHT22;7917;50.818;6.972;2022-08-16T15:55:08;31.00;99.90
15636;DHT22;7917;50.818;6.972;2022-08-16T15:57:38;31.30;99.90
15636;DHT22;7917;50.818;6.972;2022-08-16T16:00:07;31.20;99.90
15636;DHT22;7917;50.818;6.972;2022-08-16T16:02:34;31.20;99.90
15636;DHT22;7917;50.818;6.972;2022-08-16T16:05:05;31.00;99.90
15636;DHT22;7917;50.818;6.972;2022-08-16T16:07:34;30.60;99.90
15636;DHT22;7917;50.818;6.972;2022-08-16T16:10:05;30.40;99.90